Mudville, Louisiana
Current Conditions -  °F | °C
As of 6:28 AM on Sunday 21 Dec 2014 (Local Time) from KESF Reporting Station
Few Clouds Few Clouds  
Wind Chill: 33°   Ceiling: Unl
Heat Index: 33°   Visibility: 10mi
Dew Point: 32°   Wind: 0mph
Humidity: 96%   Direction: NA
Pressure: 30.13"   Gusts: NA
Location:  31.7323°N, 92.4245°W
Report Text: KESF 211228Z AUTO 00000KT 10SM FEW003 01/00 A3013 RMK AO2 T00060000
Loading
Personal Weather Stations






























Interactive Weather Map New forecast layout! Learn more

10-Day Weather Forecast

Advertisements
Track Severe Weather on mobile